sensor_id;sensor_type;location;lat;lon;timestamp;temperature;humidity
77523;SHT31;66637;-29.628;-49.938;2023-02-02T00:00:40;27.16;82.43
77523;SHT31;66637;-29.628;-49.938;2023-02-02T00:03:10;27.16;82.34
77523;SHT31;66637;-29.628;-49.938;2023-02-02T00:05:52;27.14;82.80
77523;SHT31;66637;-29.628;-49.938;2023-02-02T00:08:22;27.02;83.15
77523;SHT31;66637;-29.628;-49.938;2023-02-02T00:10:51;26.92;83.67
77523;SHT31;66637;-29.628;-49.938;2023-02-02T00:13:23;26.99;83.79
77523;SHT31;66637;-29.628;-49.938;2023-02-02T00:15:54;27.08;82.96
77523;SHT31;66637;-29.628;-49.938;2023-02-02T00:18:30;27.01;83.23
77523;SHT31;66637;-29.628;-49.938;2023-02-02T00:21:00;26.99;83.37
77523;SHT31;66637;-29.628;-49.938;2023-02-02T00:23:30;26.98;83.38
77523;SHT31;66637;-29.628;-49.938;2023-02-02T00:26:00;26.98;83.37
77523;SHT31;66637;-29.628;-49.938;2023-02-02T00:28:31;27.01;83.51
77523;SHT31;66637;-29.628;-49.938;2023-02-02T00:31:04;27.09;83.11
77523;SHT31;66637;-29.628;-49.938;2023-02-02T00:33:35;27.04;83.12
77523;SHT31;66637;-29.628;-49.938;2023-02-02T00:36:06;26.97;83.55
77523;SHT31;66637;-29.628;-49.938;2023-02-02T00:38:36;26.94;83.73
77523;SHT31;66637;-29.628;-49.938;2023-02-02T00:41:06;26.98;83.69
77523;SHT31;66637;-29.628;-49.938;2023-02-02T00:43:37;27.04;83.33
77523;SHT31;66637;-29.628;-49.938;2023-02-02T00:46:17;27.01;83.48
77523;SHT31;66637;-29.628;-49.938;2023-02-02T00:48:47;26.97;83.13
77523;SHT31;66637;-29.628;-49.938;2023-02-02T00:51:21;26.97;83.30
77523;SHT31;66637;-29.628;-49.938;2023-02-02T00:53:51;26.98;83.19
77523;SHT31;66637;-29.628;-49.938;2023-02-02T00:56:21;27.01;82.94
77523;SHT31;66637;-29.628;-49.938;2023-02-02T00:58:54;27.02;82.89
77523;SHT31;66637;-29.628;-49.938;2023-02-02T01:01:26;27.01;82.78
77523;SHT31;66637;-29.628;-49.938;2023-02-02T01:03:58;26.98;83.38
77523;SHT31;66637;-29.628;-49.938;2023-02-02T01:06:30;26.94;83.56
77523;SHT31;66637;-29.628;-49.938;2023-02-02T01:08:59;27.01;83.38
77523;SHT31;66637;-29.628;-49.938;2023-02-02T01:11:30;26.99;82.98
77523;SHT31;66637;-29.628;-49.938;2023-02-02T01:14:00;26.90;83.71
77523;SHT31;66637;-29.628;-49.938;2023-02-02T01:16:30;26.84;83.68
77523;SHT31;66637;-29.628;-49.938;2023-02-02T01:19:01;26.88;83.78
77523;SHT31;66637;-29.628;-49.938;2023-02-02T01:21:31;26.85;83.39
77523;SHT31;66637;-29.628;-49.938;2023-02-02T01:24:01;26.84;83.33
77523;SHT31;66637;-29.628;-49.938;2023-02-02T01:26:31;26.87;82.93
77523;SHT31;66637;-29.628;-49.938;2023-02-02T01:29:01;26.81;83.76
77523;SHT31;66637;-29.628;-49.938;2023-02-02T01:31:31;26.81;83.28
77523;SHT31;66637;-29.628;-49.938;2023-02-02T01:34:03;26.88;82.78
77523;SHT31;66637;-29.628;-49.938;2023-02-02T01:36:34;26.87;82.61
77523;SHT31;66637;-29.628;-49.938;2023-02-02T01:39:08;26.81;83.41
77523;SHT31;66637;-29.628;-49.938;2023-02-02T01:41:40;26.83;83.26
77523;SHT31;66637;-29.628;-49.938;2023-02-02T01:47:19;26.80;83.64
77523;SHT31;66637;-29.628;-49.938;2023-02-02T01:49:57;26.76;83.65
77523;SHT31;66637;-29.628;-49.938;2023-02-02T01:52:29;26.71;83.63
77523;SHT31;66637;-29.628;-49.938;2023-02-02T01:55:08;26.70;84.24
77523;SHT31;66637;-29.628;-49.938;2023-02-02T01:58:08;26.73;83.81
77523;SHT31;66637;-29.628;-49.938;2023-02-02T02:00:37;26.76;83.47
77523;SHT31;66637;-29.628;-49.938;2023-02-02T02:03:11;26.77;83.56
77523;SHT31;66637;-29.628;-49.938;2023-02-02T02:05:48;26.70;84.38
77523;SHT31;66637;-29.628;-49.938;2023-02-02T02:08:24;26.71;83.72
77523;SHT31;66637;-29.628;-49.938;2023-02-02T02:10:56;26.68;83.67
77523;SHT31;66637;-29.628;-49.938;2023-02-02T02:13:28;26.77;83.29
77523;SHT31;66637;-29.628;-49.938;2023-02-02T02:34:21;26.58;83.51
77523;SHT31;66637;-29.628;-49.938;2023-02-02T02:37:09;26.63;83.45
77523;SHT31;66637;-29.628;-49.938;2023-02-02T02:39:51;26.56;83.61
77523;SHT31;66637;-29.628;-49.938;2023-02-02T02:42:27;26.50;83.88
77523;SHT31;66637;-29.628;-49.938;2023-02-02T02:45:01;26.44;83.92
77523;SHT31;66637;-29.628;-49.938;2023-02-02T02:47:32;26.43;84.13
77523;SHT31;66637;-29.628;-49.938;2023-02-02T02:50:04;26.36;84.33
77523;SHT31;66637;-29.628;-49.938;2023-02-02T02:52:35;26.30;84.51
77523;SHT31;66637;-29.628;-49.938;2023-02-02T02:55:06;26.33;84.44
77523;SHT31;66637;-29.628;-49.938;2023-02-02T03:00:46;26.37;84.08
77523;SHT31;66637;-29.628;-49.938;2023-02-02T03:03:32;26.33;84.42
77523;SHT31;66637;-29.628;-49.938;2023-02-02T03:06:14;26.22;85.36
77523;SHT31;66637;-29.628;-49.938;2023-02-02T03:11:23;26.02;86.30
77523;SHT31;66637;-29.628;-49.938;2023-02-02T03:13:54;26.02;86.29
77523;SHT31;66637;-29.628;-49.938;2023-02-02T03:16:24;26.00;86.24
77523;SHT31;66637;-29.628;-49.938;2023-02-02T03:18:56;25.99;86.31
77523;SHT31;66637;-29.628;-49.938;2023-02-02T03:21:26;25.97;85.85
77523;SHT31;66637;-29.628;-49.938;2023-02-02T03:23:56;25.97;86.16
77523;SHT31;66637;-29.628;-49.938;2023-02-02T03:26:26;25.93;86.44
77523;SHT31;66637;-29.628;-49.938;2023-02-02T03:28:56;25.92;86.09
77523;SHT31;66637;-29.628;-49.938;2023-02-02T03:31:27;25.89;86.20
77523;SHT31;66637;-29.628;-49.938;2023-02-02T03:33:57;25.90;86.14
77523;SHT31;66637;-29.628;-49.938;2023-02-02T03:36:27;25.86;85.90
77523;SHT31;66637;-29.628;-49.938;2023-02-02T03:38:57;25.79;86.23
77523;SHT31;66637;-29.628;-49.938;2023-02-02T03:41:27;25.79;86.01
77523;SHT31;66637;-29.628;-49.938;2023-02-02T03:43:58;25.79;86.32
77523;SHT31;66637;-29.628;-49.938;2023-02-02T03:46:40;25.69;85.99
77523;SHT31;66637;-29.628;-49.938;2023-02-02T03:49:12;25.75;85.77
77523;SHT31;66637;-29.628;-49.938;2023-02-02T03:51:47;25.69;85.69
77523;SHT31;66637;-29.628;-49.938;2023-02-02T03:54:22;25.73;86.67
77523;SHT31;66637;-29.628;-49.938;2023-02-02T03:56:52;25.72;86.34
77523;SHT31;66637;-29.628;-49.938;2023-02-02T03:59:24;25.71;86.63
77523;SHT31;66637;-29.628;-49.938;2023-02-02T04:01:58;25.68;86.36
77523;SHT31;66637;-29.628;-49.938;2023-02-02T04:04:30;25.63;86.35
77523;SHT31;66637;-29.628;-49.938;2023-02-02T04:07:00;25.59;86.17
77523;SHT31;66637;-29.628;-49.938;2023-02-02T04:09:34;25.53;85.98
77523;SHT31;66637;-29.628;-49.938;2023-02-02T04:12:06;25.52;86.41
77523;SHT31;66637;-29.628;-49.938;2023-02-02T04:14:36;25.49;85.98
77523;SHT31;66637;-29.628;-49.938;2023-02-02T04:17:07;25.46;86.26
77523;SHT31;66637;-29.628;-49.938;2023-02-02T04:19:37;25.53;86.17
77523;SHT31;66637;-29.628;-49.938;2023-02-02T04:22:07;25.43;85.87
77523;SHT31;66637;-29.628;-49.938;2023-02-02T04:24:40;25.41;86.32
77523;SHT31;66637;-29.628;-49.938;2023-02-02T04:27:10;25.41;86.39
77523;SHT31;66637;-29.628;-49.938;2023-02-02T04:29:40;25.46;86.40
77523;SHT31;66637;-29.628;-49.938;2023-02-02T04:32:10;25.51;86.20
77523;SHT31;66637;-29.628;-49.938;2023-02-02T04:34:40;25.51;86.17
77523;SHT31;66637;-29.628;-49.938;2023-02-02T04:37:11;25.48;86.27
77523;SHT31;66637;-29.628;-49.938;2023-02-02T04:39:41;25.38;86.02
77523;SHT31;66637;-29.628;-49.938;2023-02-02T04:42:11;25.28;86.39
77523;SHT31;66637;-29.628;-49.938;2023-02-02T04:44:41;25.25;86.13
77523;SHT31;66637;-29.628;-49.938;2023-02-02T04:47:14;25.21;86.49
77523;SHT31;66637;-29.628;-49.938;2023-02-02T04:49:44;25.10;86.50
77523;SHT31;66637;-29.628;-49.938;2023-02-02T04:52:14;25.14;86.82
77523;SHT31;66637;-29.628;-49.938;2023-02-02T04:54:43;25.17;86.07
77523;SHT31;66637;-29.628;-49.938;2023-02-02T04:57:13;25.12;85.78
77523;SHT31;66637;-29.628;-49.938;2023-02-02T04:59:43;25.21;86.14
77523;SHT31;66637;-29.628;-49.938;2023-02-02T05:02:13;25.28;85.92
77523;SHT31;66637;-29.628;-49.938;2023-02-02T05:04:43;25.20;85.64
77523;SHT31;66637;-29.628;-49.938;2023-02-02T05:07:13;25.10;85.45
77523;SHT31;66637;-29.628;-49.938;2023-02-02T05:09:43;25.03;85.91
77523;SHT31;66637;-29.628;-49.938;2023-02-02T05:12:13;25.06;85.85
77523;SHT31;66637;-29.628;-49.938;2023-02-02T05:14:43;25.06;85.60
77523;SHT31;66637;-29.628;-49.938;2023-02-02T05:17:13;25.04;85.39
77523;SHT31;66637;-29.628;-49.938;2023-02-02T05:19:43;25.01;85.07
77523;SHT31;66637;-29.628;-49.938;2023-02-02T05:22:13;24.91;84.96
77523;SHT31;66637;-29.628;-49.938;2023-02-02T05:24:42;24.84;85.16
77523;SHT31;66637;-29.628;-49.938;2023-02-02T05:27:13;24.83;85.17
77523;SHT31;66637;-29.628;-49.938;2023-02-02T05:29:42;24.77;85.03
77523;SHT31;66637;-29.628;-49.938;2023-02-02T05:32:12;24.74;84.93
77523;SHT31;66637;-29.628;-49.938;2023-02-02T05:34:42;24.79;84.76
77523;SHT31;66637;-29.628;-49.938;2023-02-02T05:37:12;24.71;84.84
77523;SHT31;66637;-29.628;-49.938;2023-02-02T05:39:42;24.74;84.65
77523;SHT31;66637;-29.628;-49.938;2023-02-02T05:42:12;24.69;84.69
77523;SHT31;66637;-29.628;-49.938;2023-02-02T05:44:42;24.64;84.77
77523;SHT31;66637;-29.628;-49.938;2023-02-02T05:47:12;24.66;84.49
77523;SHT31;66637;-29.628;-49.938;2023-02-02T05:49:42;24.61;84.71
77523;SHT31;66637;-29.628;-49.938;2023-02-02T05:52:22;24.64;84.70
77523;SHT31;66637;-29.628;-49.938;2023-02-02T05:54:53;24.60;84.50
77523;SHT31;66637;-29.628;-49.938;2023-02-02T05:57:22;24.59;84.51
77523;SHT31;66637;-29.628;-49.938;2023-02-02T05:59:53;24.59;84.73
77523;SHT31;66637;-29.628;-49.938;2023-02-02T06:02:23;24.56;84.79
77523;SHT31;66637;-29.628;-49.938;2023-02-02T06:04:53;24.61;84.61
77523;SHT31;66637;-29.628;-49.938;2023-02-02T06:07:23;24.63;84.40
77523;SHT31;66637;-29.628;-49.938;2023-02-02T06:09:53;24.60;84.45
77523;SHT31;66637;-29.628;-49.938;2023-02-02T06:12:22;24.49;84.56
77523;SHT31;66637;-29.628;-49.938;2023-02-02T06:14:53;24.50;84.37
77523;SHT31;66637;-29.628;-49.938;2023-02-02T06:17:22;24.53;84.22
77523;SHT31;66637;-29.628;-49.938;2023-02-02T06:19:52;24.44;84.23
77523;SHT31;66637;-29.628;-49.938;2023-02-02T06:22:22;24.49;84.18
77523;SHT31;66637;-29.628;-49.938;2023-02-02T06:24:53;24.40;84.35
77523;SHT31;66637;-29.628;-49.938;2023-02-02T06:27:22;24.43;84.42
77523;SHT31;66637;-29.628;-49.938;2023-02-02T06:29:52;24.39;84.29
77523;SHT31;66637;-29.628;-49.938;2023-02-02T06:32:22;24.36;84.22
77523;SHT31;66637;-29.628;-49.938;2023-02-02T06:34:52;24.33;84.24
77523;SHT31;66637;-29.628;-49.938;2023-02-02T06:37:22;24.39;84.15
77523;SHT31;66637;-29.628;-49.938;2023-02-02T06:39:52;24.32;84.14
77523;SHT31;66637;-29.628;-49.938;2023-02-02T06:42:22;24.32;84.10
77523;SHT31;66637;-29.628;-49.938;2023-02-02T06:44:52;24.35;84.11
77523;SHT31;66637;-29.628;-49.938;2023-02-02T06:47:21;24.25;84.21
77523;SHT31;66637;-29.628;-49.938;2023-02-02T06:49:54;24.32;83.94
77523;SHT31;66637;-29.628;-49.938;2023-02-02T06:52:24;24.30;83.89
77523;SHT31;66637;-29.628;-49.938;2023-02-02T06:54:54;24.23;84.17
77523;SHT31;66637;-29.628;-49.938;2023-02-02T06:57:23;24.18;84.21
77523;SHT31;66637;-29.628;-49.938;2023-02-02T06:59:54;24.16;84.27
77523;SHT31;66637;-29.628;-49.938;2023-02-02T07:02:23;24.16;84.14
77523;SHT31;66637;-29.628;-49.938;2023-02-02T07:04:54;24.16;84.32
77523;SHT31;66637;-29.628;-49.938;2023-02-02T07:07:23;24.13;84.33
77523;SHT31;66637;-29.628;-49.938;2023-02-02T07:09:53;24.12;84.37
77523;SHT31;66637;-29.628;-49.938;2023-02-02T07:12:25;24.09;84.50
77523;SHT31;66637;-29.628;-49.938;2023-02-02T07:14:56;24.10;84.16
77523;SHT31;66637;-29.628;-49.938;2023-02-02T07:17:28;24.06;84.19
77523;SHT31;66637;-29.628;-49.938;2023-02-02T07:19:58;24.06;84.06
77523;SHT31;66637;-29.628;-49.938;2023-02-02T07:22:28;24.06;84.08
77523;SHT31;66637;-29.628;-49.938;2023-02-02T07:24:57;24.02;83.97
77523;SHT31;66637;-29.628;-49.938;2023-02-02T07:27:27;23.98;83.77
77523;SHT31;66637;-29.628;-49.938;2023-02-02T07:29:57;23.92;84.06
77523;SHT31;66637;-29.628;-49.938;2023-02-02T07:32:27;23.94;84.04
77523;SHT31;66637;-29.628;-49.938;2023-02-02T07:34:57;23.95;83.90
77523;SHT31;66637;-29.628;-49.938;2023-02-02T07:37:27;23.95;83.64
77523;SHT31;66637;-29.628;-49.938;2023-02-02T07:39:57;23.90;83.75
77523;SHT31;66637;-29.628;-49.938;2023-02-02T07:42:27;23.88;83.83
77523;SHT31;66637;-29.628;-49.938;2023-02-02T07:44:57;23.85;83.88
77523;SHT31;66637;-29.628;-49.938;2023-02-02T07:47:55;23.89;83.73
77523;SHT31;66637;-29.628;-49.938;2023-02-02T07:50:26;23.85;83.75
77523;SHT31;66637;-29.628;-49.938;2023-02-02T07:52:58;23.84;83.81
77523;SHT31;66637;-29.628;-49.938;2023-02-02T07:55:29;23.81;83.72
77523;SHT31;66637;-29.628;-49.938;2023-02-02T07:57:59;23.81;83.62
77523;SHT31;66637;-29.628;-49.938;2023-02-02T08:00:30;23.76;84.04
77523;SHT31;66637;-29.628;-49.938;2023-02-02T08:03:00;23.74;83.90
77523;SHT31;66637;-29.628;-49.938;2023-02-02T08:05:29;23.68;83.96
77523;SHT31;66637;-29.628;-49.938;2023-02-02T08:08:01;23.72;83.76
77523;SHT31;66637;-29.628;-49.938;2023-02-02T08:10:31;23.74;83.68
77523;SHT31;66637;-29.628;-49.938;2023-02-02T08:13:01;23.69;83.76
77523;SHT31;66637;-29.628;-49.938;2023-02-02T08:15:31;23.64;84.06
77523;SHT31;66637;-29.628;-49.938;2023-02-02T08:18:01;23.65;84.04
77523;SHT31;66637;-29.628;-49.938;2023-02-02T08:20:31;23.68;83.85
77523;SHT31;66637;-29.628;-49.938;2023-02-02T08:23:01;23.71;83.71
77523;SHT31;66637;-29.628;-49.938;2023-02-02T08:25:30;23.67;83.65
77523;SHT31;66637;-29.628;-49.938;2023-02-02T08:28:01;23.58;83.76
77523;SHT31;66637;-29.628;-49.938;2023-02-02T08:30:31;23.59;83.78
77523;SHT31;66637;-29.628;-49.938;2023-02-02T08:33:03;23.54;83.67
77523;SHT31;66637;-29.628;-49.938;2023-02-02T08:35:33;23.50;83.59
77523;SHT31;66637;-29.628;-49.938;2023-02-02T08:38:03;23.45;83.62
77523;SHT31;66637;-29.628;-49.938;2023-02-02T08:40:33;23.45;83.58
77523;SHT31;66637;-29.628;-49.938;2023-02-02T08:43:03;23.44;83.61
77523;SHT31;66637;-29.628;-49.938;2023-02-02T08:45:41;23.40;83.51
77523;SHT31;66637;-29.628;-49.938;2023-02-02T08:48:33;23.38;83.47
77523;SHT31;66637;-29.628;-49.938;2023-02-02T08:51:04;23.38;83.45
77523;SHT31;66637;-29.628;-49.938;2023-02-02T08:53:35;23.37;83.34
77523;SHT31;66637;-29.628;-49.938;2023-02-02T08:56:08;23.43;83.11
77523;SHT31;66637;-29.628;-49.938;2023-02-02T08:58:39;23.44;82.98
77523;SHT31;66637;-29.628;-49.938;2023-02-02T09:01:18;23.47;82.97
77523;SHT31;66637;-29.628;-49.938;2023-02-02T09:03:59;23.51;82.78
77523;SHT31;66637;-29.628;-49.938;2023-02-02T09:06:32;23.57;82.62
77523;SHT31;66637;-29.628;-49.938;2023-02-02T09:09:04;23.67;82.26
77523;SHT31;66637;-29.628;-49.938;2023-02-02T09:11:35;23.69;82.30
77523;SHT31;66637;-29.628;-49.938;2023-02-02T09:14:05;23.76;81.98
77523;SHT31;66637;-29.628;-49.938;2023-02-02T09:16:36;23.78;81.65
77523;SHT31;66637;-29.628;-49.938;2023-02-02T09:19:06;23.84;81.31
77523;SHT31;66637;-29.628;-49.938;2023-02-02T09:21:36;23.89;81.00
77523;SHT31;66637;-29.628;-49.938;2023-02-02T09:24:08;23.99;80.72
77523;SHT31;66637;-29.628;-49.938;2023-02-02T09:26:39;24.09;80.45
77523;SHT31;66637;-29.628;-49.938;2023-02-02T09:29:14;24.22;79.84
77523;SHT31;66637;-29.628;-49.938;2023-02-02T09:31:44;24.28;79.49
77523;SHT31;66637;-29.628;-49.938;2023-02-02T09:34:15;24.37;79.32
77523;SHT31;66637;-29.628;-49.938;2023-02-02T09:36:45;24.49;79.21
77523;SHT31;66637;-29.628;-49.938;2023-02-02T09:39:16;24.61;79.35
77523;SHT31;66637;-29.628;-49.938;2023-02-02T09:42:11;24.87;78.88
77523;SHT31;66637;-29.628;-49.938;2023-02-02T09:45:03;25.03;77.95
77523;SHT31;66637;-29.628;-49.938;2023-02-02T09:55:48;25.22;76.59
77523;SHT31;66637;-29.628;-49.938;2023-02-02T09:58:20;25.12;76.91
77523;SHT31;66637;-29.628;-49.938;2023-02-02T10:01:53;25.18;77.32
77523;SHT31;66637;-29.628;-49.938;2023-02-02T10:04:05;25.21;77.09
77523;SHT31;66637;-29.628;-49.938;2023-02-02T10:06:39;25.21;77.33
77523;SHT31;66637;-29.628;-49.938;2023-02-02T10:09:24;25.27;77.14
77523;SHT31;66637;-29.628;-49.938;2023-02-02T10:15:08;25.39;77.16
77523;SHT31;66637;-29.628;-49.938;2023-02-02T10:20:58;26.22;76.51
77523;SHT31;66637;-29.628;-49.938;2023-02-02T10:26:44;29.72;65.40
77523;SHT31;66637;-29.628;-49.938;2023-02-02T10:29:34;29.72;66.62
77523;SHT31;66637;-29.628;-49.938;2023-02-02T10:32:27;30.95;62.10
77523;SHT31;66637;-29.628;-49.938;2023-02-02T10:41:01;31.10;62.60
77523;SHT31;66637;-29.628;-49.938;2023-02-02T10:49:13;31.43;63.72
77523;SHT31;66637;-29.628;-49.938;2023-02-02T10:55:40;31.73;64.30
77523;SHT31;66637;-29.628;-49.938;2023-02-02T10:57:50;31.77;63.85
77523;SHT31;66637;-29.628;-49.938;2023-02-02T11:03:28;31.59;64.40
77523;SHT31;66637;-29.628;-49.938;2023-02-02T11:06:02;31.81;63.91
77523;SHT31;66637;-29.628;-49.938;2023-02-02T11:08:52;31.80;63.80
77523;SHT31;66637;-29.628;-49.938;2023-02-02T11:11:36;31.53;64.65
77523;SHT31;66637;-29.628;-49.938;2023-02-02T11:16:39;32.20;63.53
77523;SHT31;66637;-29.628;-49.938;2023-02-02T11:19:22;31.73;64.68
77523;SHT31;66637;-29.628;-49.938;2023-02-02T11:22:01;31.40;65.77
77523;SHT31;66637;-29.628;-49.938;2023-02-02T11:24:47;31.49;65.63
77523;SHT31;66637;-29.628;-49.938;2023-02-02T11:27:29;31.23;66.53
77523;SHT31;66637;-29.628;-49.938;2023-02-02T11:30:19;31.70;65.75
77523;SHT31;66637;-29.628;-49.938;2023-02-02T11:32:51;32.23;63.55
77523;SHT31;66637;-29.628;-49.938;2023-02-02T11:35:23;32.41;63.72
77523;SHT31;66637;-29.628;-49.938;2023-02-02T11:38:12;32.24;63.69
77523;SHT31;66637;-29.628;-49.938;2023-02-02T11:40:44;32.11;64.12
77523;SHT31;66637;-29.628;-49.938;2023-02-02T11:48:37;31.87;65.38
77523;SHT31;66637;-29.628;-49.938;2023-02-02T11:51:23;31.71;65.87
77523;SHT31;66637;-29.628;-49.938;2023-02-02T11:54:19;31.74;65.97
77523;SHT31;66637;-29.628;-49.938;2023-02-02T11:56:54;31.61;66.14
77523;SHT31;66637;-29.628;-49.938;2023-02-02T11:59:37;31.84;65.65
77523;SHT31;66637;-29.628;-49.938;2023-02-02T12:02:28;32.10;65.49
77523;SHT31;66637;-29.628;-49.938;2023-02-02T12:07:43;32.03;64.64
77523;SHT31;66637;-29.628;-49.938;2023-02-02T12:10:19;32.48;63.92
77523;SHT31;66637;-29.628;-49.938;2023-02-02T12:18:59;31.93;65.44
77523;SHT31;66637;-29.628;-49.938;2023-02-02T12:30:23;31.64;66.38
77523;SHT31;66637;-29.628;-49.938;2023-02-02T12:35:59;31.60;66.07
77523;SHT31;66637;-29.628;-49.938;2023-02-02T12:41:46;31.43;67.86
77523;SHT31;66637;-29.628;-49.938;2023-02-02T12:44:50;31.56;66.84
77523;SHT31;66637;-29.628;-49.938;2023-02-02T13:09:33;32.23;65.17
77523;SHT31;66637;-29.628;-49.938;2023-02-02T13:12:09;32.51;64.18
77523;SHT31;66637;-29.628;-49.938;2023-02-02T13:14:47;32.66;64.19
77523;SHT31;66637;-29.628;-49.938;2023-02-02T13:20:01;33.25;62.35
77523;SHT31;66637;-29.628;-49.938;2023-02-02T13:22:40;33.40;61.95
77523;SHT31;66637;-29.628;-49.938;2023-02-02T13:25:26;33.54;62.92
77523;SHT31;66637;-29.628;-49.938;2023-02-02T13:27:59;32.65;63.40
77523;SHT31;66637;-29.628;-49.938;2023-02-02T13:30:36;32.20;65.40
77523;SHT31;66637;-29.628;-49.938;2023-02-02T13:33:18;31.77;66.96
77523;SHT31;66637;-29.628;-49.938;2023-02-02T13:35:53;31.59;66.95
77523;SHT31;66637;-29.628;-49.938;2023-02-02T13:38:28;31.47;67.09
77523;SHT31;66637;-29.628;-49.938;2023-02-02T13:41:06;31.42;67.69
77523;SHT31;66637;-29.628;-49.938;2023-02-02T13:52:10;30.90;69.52
77523;SHT31;66637;-29.628;-49.938;2023-02-02T14:00:30;30.51;69.98
77523;SHT31;66637;-29.628;-49.938;2023-02-02T14:03:19;30.74;69.66
77523;SHT31;66637;-29.628;-49.938;2023-02-02T14:06:15;30.89;68.74
77523;SHT31;66637;-29.628;-49.938;2023-02-02T14:08:59;31.10;68.31
77523;SHT31;66637;-29.628;-49.938;2023-02-02T14:11:31;31.98;67.10
77523;SHT31;66637;-29.628;-49.938;2023-02-02T14:14:17;32.89;63.93
77523;SHT31;66637;-29.628;-49.938;2023-02-02T14:19:53;33.23;63.11
77523;SHT31;66637;-29.628;-49.938;2023-02-02T14:22:42;33.27;63.48
77523;SHT31;66637;-29.628;-49.938;2023-02-02T14:28:11;32.85;64.38
77523;SHT31;66637;-29.628;-49.938;2023-02-02T14:31:16;32.62;64.73
77523;SHT31;66637;-29.628;-49.938;2023-02-02T14:33:47;33.46;63.70
77523;SHT31;66637;-29.628;-49.938;2023-02-02T14:36:17;33.66;61.11
77523;SHT31;66637;-29.628;-49.938;2023-02-02T14:39:00;33.98;60.90
77523;SHT31;66637;-29.628;-49.938;2023-02-02T14:45:15;32.42;65.22
77523;SHT31;66637;-29.628;-49.938;2023-02-02T14:50:53;31.84;66.28
77523;SHT31;66637;-29.628;-49.938;2023-02-02T14:56:10;31.53;67.40
77523;SHT31;66637;-29.628;-49.938;2023-02-02T14:58:53;31.29;67.74
77523;SHT31;66637;-29.628;-49.938;2023-02-02T15:01:28;31.56;66.91
77523;SHT31;66637;-29.628;-49.938;2023-02-02T15:06:40;31.49;67.06
77523;SHT31;66637;-29.628;-49.938;2023-02-02T15:25:41;27.12;88.62
77523;SHT31;66637;-29.628;-49.938;2023-02-02T15:30:52;27.41;88.81
77523;SHT31;66637;-29.628;-49.938;2023-02-02T15:33:34;27.60;88.93
77523;SHT31;66637;-29.628;-49.938;2023-02-02T15:38:48;26.99;88.77
77523;SHT31;66637;-29.628;-49.938;2023-02-02T15:41:41;27.45;88.84
77523;SHT31;66637;-29.628;-49.938;2023-02-02T15:44:26;27.69;88.87
77523;SHT31;66637;-29.628;-49.938;2023-02-02T15:47:00;27.66;88.90
77523;SHT31;66637;-29.628;-49.938;2023-02-02T15:49:34;27.72;88.99
77523;SHT31;66637;-29.628;-49.938;2023-02-02T15:52:24;27.96;89.07
77523;SHT31;66637;-29.628;-49.938;2023-02-02T15:54:57;28.10;89.10
77523;SHT31;66637;-29.628;-49.938;2023-02-02T15:57:36;28.20;89.19
77523;SHT31;66637;-29.628;-49.938;2023-02-02T16:03:12;28.10;89.20
77523;SHT31;66637;-29.628;-49.938;2023-02-02T16:05:49;28.18;89.31
77523;SHT31;66637;-29.628;-49.938;2023-02-02T16:08:25;28.48;89.40
77523;SHT31;66637;-29.628;-49.938;2023-02-02T16:13:39;28.20;89.49
77523;SHT31;66637;-29.628;-49.938;2023-02-02T16:16:25;28.57;89.59
77523;SHT31;66637;-29.628;-49.938;2023-02-02T16:19:22;28.71;89.60
77523;SHT31;66637;-29.628;-49.938;2023-02-02T16:24:33;28.48;89.65
77523;SHT31;66637;-29.628;-49.938;2023-02-02T16:27:06;28.58;89.66
77523;SHT31;66637;-29.628;-49.938;2023-02-02T16:29:38;28.62;89.67
77523;SHT31;66637;-29.628;-49.938;2023-02-02T16:32:28;29.18;89.71
77523;SHT31;66637;-29.628;-49.938;2023-02-02T16:56:39;28.87;89.55
77523;SHT31;66637;-29.628;-49.938;2023-02-02T17:01:50;28.76;82.30
77523;SHT31;66637;-29.628;-49.938;2023-02-02T17:04:29;28.87;83.02
77523;SHT31;66637;-29.628;-49.938;2023-02-02T17:07:09;28.57;84.56
77523;SHT31;66637;-29.628;-49.938;2023-02-02T17:09:46;28.31;81.93
77523;SHT31;66637;-29.628;-49.938;2023-02-02T17:12:21;28.14;81.21
77523;SHT31;66637;-29.628;-49.938;2023-02-02T17:15:24;28.81;85.85
77523;SHT31;66637;-29.628;-49.938;2023-02-02T17:17:57;28.41;81.29
77523;SHT31;66637;-29.628;-49.938;2023-02-02T17:20:27;28.27;81.12
77523;SHT31;66637;-29.628;-49.938;2023-02-02T17:23:06;28.81;83.80
77523;SHT31;66637;-29.628;-49.938;2023-02-02T17:25:41;28.21;81.97
77523;SHT31;66637;-29.628;-49.938;2023-02-02T17:28:20;28.47;83.81
77523;SHT31;66637;-29.628;-49.938;2023-02-02T17:31:01;28.79;81.92
77523;SHT31;66637;-29.628;-49.938;2023-02-02T17:33:33;28.64;80.13
77523;SHT31;66637;-29.628;-49.938;2023-02-02T17:36:04;28.50;79.88
77523;SHT31;66637;-29.628;-49.938;2023-02-02T17:38:36;28.55;80.27
77523;SHT31;66637;-29.628;-49.938;2023-02-02T17:41:09;28.64;80.24
77523;SHT31;66637;-29.628;-49.938;2023-02-02T17:43:43;28.55;80.04
77523;SHT31;66637;-29.628;-49.938;2023-02-02T17:46:13;28.52;79.92
77523;SHT31;66637;-29.628;-49.938;2023-02-02T17:48:44;28.11;80.12
77523;SHT31;66637;-29.628;-49.938;2023-02-02T17:51:15;27.96;80.16
77523;SHT31;66637;-29.628;-49.938;2023-02-02T17:53:45;28.04;79.80
77523;SHT31;66637;-29.628;-49.938;2023-02-02T17:56:16;27.82;79.02
77523;SHT31;66637;-29.628;-49.938;2023-02-02T17:58:47;27.90;79.42
77523;SHT31;66637;-29.628;-49.938;2023-02-02T18:01:18;27.83;79.22
77523;SHT31;66637;-29.628;-49.938;2023-02-02T18:03:48;27.94;79.76
77523;SHT31;66637;-29.628;-49.938;2023-02-02T18:06:19;27.82;79.78
77523;SHT31;66637;-29.628;-49.938;2023-02-02T18:08:48;27.67;79.84
77523;SHT31;66637;-29.628;-49.938;2023-02-02T18:11:19;28.16;78.17
77523;SHT31;66637;-29.628;-49.938;2023-02-02T18:13:49;28.24;76.56
77523;SHT31;66637;-29.628;-49.938;2023-02-02T18:16:19;28.99;70.83
77523;SHT31;66637;-29.628;-49.938;2023-02-02T18:18:49;29.11;69.86
77523;SHT31;66637;-29.628;-49.938;2023-02-02T18:21:19;29.36;69.85
77523;SHT31;66637;-29.628;-49.938;2023-02-02T18:23:53;29.30;68.16
77523;SHT31;66637;-29.628;-49.938;2023-02-02T18:26:23;29.23;68.64
77523;SHT31;66637;-29.628;-49.938;2023-02-02T18:28:53;29.04;70.18
77523;SHT31;66637;-29.628;-49.938;2023-02-02T18:31:23;29.09;69.11
77523;SHT31;66637;-29.628;-49.938;2023-02-02T18:33:55;28.99;69.54
77523;SHT31;66637;-29.628;-49.938;2023-02-02T18:36:25;29.15;68.56
77523;SHT31;66637;-29.628;-49.938;2023-02-02T18:38:55;29.25;68.33
77523;SHT31;66637;-29.628;-49.938;2023-02-02T18:41:26;29.73;67.04
77523;SHT31;66637;-29.628;-49.938;2023-02-02T18:43:56;29.81;67.25
77523;SHT31;66637;-29.628;-49.938;2023-02-02T18:46:26;29.35;67.94
77523;SHT31;66637;-29.628;-49.938;2023-02-02T18:48:56;29.25;68.48
77523;SHT31;66637;-29.628;-49.938;2023-02-02T18:51:27;29.53;67.01
77523;SHT31;66637;-29.628;-49.938;2023-02-02T18:53:57;29.37;66.94